Startpagina
METAR-TAF:

METAR-TAF

Vliegvelden :

Toliara, Madagaskar

breedte: 23-23S, lengte: 043-44E, hoogte: 8 m

METAR: ontbreekt

Tijdstip: 12:38 (09:38 UTC)

Verwachting

Dit bericht is 4 uur en het 38 minuten geleden gemaakt, om 05:00 UTC
Verwachting geldig van 19 om 06 UTC tot 20 om 06 UTC
Wind 12 kt uit het oostzuidoosten
Zicht 10 km of meer
Weinig wolken op 2300 ft
Wijzigt naar
van 19 om 10 UTC tot 19 om 12 UTC
Wind 14 kt uit het zuidwesten
Wijzigt naar
van 19 om 18 UTC tot 19 om 21 UTC
Wind 8 kt uit het zuidoosten

TAF: FMST 190500Z 1906/2006 12012KT 9999 FEW023 BECMG 1910/1912 22014KT BECMG 1918/1921 14008KT

Waarnemingen en weersverwachtingen van meer dan 4000 vliegvelden (METAR en TAF).

De beschikbare stations zijn de gele en rode punten op de kaart.

Ga met uw muis naar het station om de naam te zien.

Klik dan om waarnemingen en weersverwachtingen te zien.

kaart wijzigen: klik op de groene knoppen met een zwart kruis om in te zoomen, op de groene knop met een streepje om uit te zoomen of op de groene pijlen voor aangrenzende kaarten.


METAR-TAF: